Time;durP1;ratioP1;P1;durP2;ratioP2;P2;SDS_P1;SDS_P2;PMS_P1;PMS_P2;Temp;Humidity;BMP_temperature;BMP_pressure;BME280_temperature;BME280_humidity;BME280_pressure;Samples;Min_cycle;Max_cycle;Signal;HPM_P1;HPM_P2
2022/09/20 00:01:09;;;;;;;0.10;0.10;;;;;;;8.43;100.00;97030.94;5017767;28;20040;-74
2022/09/20 00:03:37;;;;;;;0.10;0.10;;;;;;;8.35;100.00;97026.69;4984811;28;20128;-75
2022/09/20 00:06:05;;;;;;;0.15;0.10;;;;;;;8.33;100.00;97027.94;4998612;28;20076;-75
2022/09/20 00:08:31;;;;;;;0.20;0.13;;;;;;;8.34;100.00;97038.38;5001471;28;20408;-75
2022/09/20 00:11:01;;;;;;;0.10;0.10;;;;;;;8.23;100.00;97025.75;5026374;28;20108;-75
2022/09/20 00:13:27;;;;;;;0.10;0.10;;;;;;;8.29;100.00;97030.22;5021486;28;20526;-75
2022/09/20 00:15:53;;;;;;;0.10;0.10;;;;;;;8.32;100.00;97028.94;5020247;28;20032;-75
2022/09/20 00:18:18;;;;;;;0.10;0.10;;;;;;;8.31;100.00;97035.31;5037417;28;20387;-75
2022/09/20 00:20:48;;;;;;;0.30;0.20;;;;;;;8.26;100.00;97036.00;5037095;28;20040;-75
2022/09/20 00:23:14;;;;;;;0.38;0.20;;;;;;;8.25;100.00;97030.84;5036037;28;20108;-75
2022/09/20 00:25:39;;;;;;;0.30;0.20;;;;;;;8.25;100.00;97030.84;5035059;28;20025;-75
2022/09/20 00:28:05;;;;;;;0.30;0.20;;;;;;;8.18;100.00;97030.94;5037891;28;20653;-75
2022/09/20 00:30:32;;;;;;;0.10;0.10;;;;;;;8.21;100.00;97030.50;5035644;28;20028;-75
2022/09/20 00:32:58;;;;;;;0.22;0.20;;;;;;;8.21;100.00;97024.34;5019007;28;20237;-74
2022/09/20 00:35:24;;;;;;;0.20;0.20;;;;;;;8.24;100.00;97024.72;5036863;28;20063;-75
2022/09/20 00:37:49;;;;;;;0.28;0.20;;;;;;;8.22;100.00;97012.66;5039042;28;20487;-75
2022/09/20 00:40:21;;;;;;;0.20;0.20;;;;;;;8.24;100.00;97018.56;5037326;28;20032;-75
2022/09/20 00:42:47;;;;;;;0.40;0.20;;;;;;;8.15;100.00;97017.22;5037009;28;20368;-75
2022/09/20 00:45:20;;;;;;;1.10;0.50;;;;;;;8.16;100.00;97014.31;5037119;28;20116;-75
2022/09/20 00:47:54;;;;;;;0.40;0.22;;;;;;;8.13;100.00;97012.13;5020068;28;20051;-75
2022/09/20 00:50:28;;;;;;;0.35;0.20;;;;;;;8.04;100.00;97022.25;5036625;28;20033;-75
2022/09/20 00:53:03;;;;;;;0.17;0.17;;;;;;;8.10;100.00;97018.72;5037089;28;20580;-75
2022/09/20 00:55:29;;;;;;;0.90;0.40;;;;;;;8.13;100.00;97016.63;5039702;28;20532;-75
2022/09/20 00:57:55;;;;;;;0.90;0.40;;;;;;;8.13;100.00;97025.44;5034996;28;20236;-75
2022/09/20 01:00:21;;;;;;;0.88;0.40;;;;;;;8.13;100.00;97016.63;5038396;28;20035;-75
2022/09/20 01:02:56;;;;;;;0.38;0.20;;;;;;;8.14;100.00;97015.59;5034486;28;20041;-75
2022/09/20 01:05:23;;;;;;;0.43;0.20;;;;;;;8.05;100.00;97015.88;5037620;28;20036;-76
2022/09/20 01:07:50;;;;;;;0.20;0.17;;;;;;;7.97;100.00;97018.81;5036868;28;20131;-75
2022/09/20 01:10:16;;;;;;;0.30;0.20;;;;;;;7.97;100.00;97015.34;5035588;28;20045;-75
2022/09/20 01:12:44;;;;;;;0.43;0.20;;;;;;;7.92;100.00;97015.16;5002882;28;20064;-75
2022/09/20 01:15:12;;;;;;;0.40;0.20;;;;;;;7.92;100.00;97012.50;5020852;28;20419;-75
2022/09/20 01:17:41;;;;;;;0.63;0.25;;;;;;;7.93;100.00;97006.94;5036735;28;20364;-76
2022/09/20 01:20:16;;;;;;;0.55;0.28;;;;;;;7.88;100.00;97011.31;5035206;28;20107;-75
2022/09/20 01:23:00;;;;;;;0.50;0.20;;;;;;;7.82;100.00;97021.00;5016902;28;20024;-76
2022/09/20 01:25:56;;;;;;;0.43;0.20;;;;;;;7.89;100.00;97016.41;5037505;28;20242;-76
2022/09/20 01:28:25;;;;;;;0.68;0.30;;;;;;;7.90;100.00;97017.22;5036209;28;20037;-75
2022/09/20 01:31:23;;;;;;;0.30;0.20;;;;;;;7.81;100.00;97014.84;5019106;28;20380;-75
2022/09/20 01:34:00;;;;;;;0.30;0.20;;;;;;;7.84;100.00;97021.56;5037525;28;20036;-75
2022/09/20 01:36:38;;;;;;;0.10;0.10;;;;;;;7.80;100.00;97020.41;4999034;28;20067;-76
2022/09/20 01:39:11;;;;;;;0.10;0.10;;;;;;;7.80;100.00;97017.72;5037944;28;20075;-76
2022/09/20 01:41:44;;;;;;;0.85;0.45;;;;;;;7.78;100.00;97009.13;5034532;28;20032;-76
2022/09/20 01:44:10;;;;;;;0.10;0.10;;;;;;;7.77;100.00;97016.28;5034712;28;20047;-75
2022/09/20 01:46:36;;;;;;;0.68;0.30;;;;;;;7.73;100.00;97023.09;5033599;28;20368;-76
2022/09/20 01:49:33;;;;;;;1.70;0.80;;;;;;;7.70;100.00;97020.84;5037340;28;20461;-76
2022/09/20 01:52:18;;;;;;;0.50;0.28;;;;;;;7.72;100.00;97015.34;5002633;28;20542;-76
2022/09/20 01:55:32;;;;;;;0.35;0.20;;;;;;;7.66;100.00;97022.34;5036702;28;20044;-75
2022/09/20 01:58:07;;;;;;;0.98;0.63;;;;;;;7.68;100.00;97032.78;5006388;28;20049;-76
2022/09/20 02:01:11;;;;;;;0.50;0.28;;;;;;;7.66;100.00;97011.69;5037073;28;20116;-76
2022/09/20 02:04:14;;;;;;;1.35;0.35;;;;;;;7.65;100.00;97007.38;5020287;28;20041;-76
2022/09/20 02:07:04;;;;;;;0.60;0.25;;;;;;;7.66;100.00;97017.00;5034481;28;20087;-76
2022/09/20 02:09:40;;;;;;;0.43;0.28;;;;;;;7.73;100.00;97024.97;5038720;28;20038;-76
2022/09/20 02:12:24;;;;;;;0.17;0.10;;;;;;;7.74;100.00;97023.91;5034916;28;20151;-76
2022/09/20 02:15:27;;;;;;;0.10;0.10;;;;;;;7.74;100.00;97024.72;5031525;28;20541;-76
2022/09/20 02:18:31;;;;;;;0.10;0.10;;;;;;;7.73;100.00;97033.75;5035289;28;20051;-76
2022/09/20 02:20:57;;;;;;;0.40;0.20;;;;;;;7.79;100.00;97037.41;5001978;28;20076;-76
2022/09/20 02:23:51;;;;;;;0.20;0.17;;;;;;;7.84;100.00;97026.91;5038364;28;20567;-76
2022/09/20 02:26:32;;;;;;;1.10;0.40;;;;;;;7.88;100.00;97029.97;5034748;28;20044;-76
2022/09/20 02:29:02;;;;;;;0.95;0.40;;;;;;;7.88;100.00;97038.78;5036030;28;20056;-76
2022/09/20 02:31:58;;;;;;;0.20;0.15;;;;;;;7.87;100.00;97037.16;5031313;28;20041;-76
2022/09/20 02:34:38;;;;;;;0.10;0.10;;;;;;;7.93;100.00;97032.78;5037058;28;20255;-76
2022/09/20 02:37:19;;;;;;;0.40;0.20;;;;;;;7.97;100.00;97039.31;5033592;28;20040;-76
2022/09/20 02:40:11;;;;;;;0.93;0.38;;;;;;;8.00;100.00;97044.19;5034690;28;20142;-76
2022/09/20 02:42:54;;;;;;;0.70;0.30;;;;;;;8.03;100.00;97033.13;5022994;28;20471;-76
2022/09/20 02:45:28;;;;;;;1.50;0.70;;;;;;;8.03;100.00;97033.94;5039027;28;20032;-76
2022/09/20 02:48:02;;;;;;;0.82;0.40;;;;;;;7.93;100.00;97038.91;5039294;28;20041;-76
2022/09/20 02:50:31;;;;;;;2.67;1.40;;;;;;;7.98;100.00;97041.75;5038698;28;20105;-77
2022/09/20 02:53:29;;;;;;;1.73;0.80;;;;;;;7.96;100.00;97035.84;5037854;28;20036;-76
2022/09/20 02:56:26;;;;;;;0.77;0.38;;;;;;;7.70;100.00;97038.69;4993051;28;20473;-76
2022/09/20 02:59:09;;;;;;;0.50;0.20;;;;;;;7.82;100.00;97047.63;5037899;28;20342;-76
2022/09/20 03:01:53;;;;;;;2.92;1.80;;;;;;;7.88;100.00;97052.09;5036343;28;20036;-76
2022/09/20 03:04:43;;;;;;;2.10;1.17;;;;;;;7.95;100.00;97042.22;5040691;28;20439;-76
2022/09/20 03:07:43;;;;;;;0.93;0.40;;;;;;;7.95;100.00;97042.22;5036823;28;20068;-76
2022/09/20 03:10:16;;;;;;;0.60;0.30;;;;;;;7.96;100.00;97051.00;5019494;28;20493;-76
2022/09/20 03:13:20;;;;;;;0.45;0.30;;;;;;;7.96;100.00;97053.69;5037117;28;20036;-76
2022/09/20 03:16:00;;;;;;;0.10;0.10;;;;;;;7.88;100.00;97040.63;5036487;28;20032;-76
2022/09/20 03:18:36;;;;;;;0.20;0.20;;;;;;;7.87;100.00;97045.16;5022724;28;20056;-76
2022/09/20 03:21:23;;;;;;;0.10;0.10;;;;;;;7.72;100.00;97045.44;5041420;28;20036;-76
2022/09/20 03:23:54;;;;;;;0.10;0.10;;;;;;;7.76;100.00;97045.81;5038370;28;20029;-76
2022/09/20 03:27:04;;;;;;;0.10;0.10;;;;;;;7.75;100.00;97047.69;5038306;28;20041;-76
2022/09/20 03:29:48;;;;;;;0.10;0.10;;;;;;;7.69;100.00;97047.72;5039059;28;20433;-76
2022/09/20 03:32:56;;;;;;;0.10;0.10;;;;;;;7.77;100.00;97048.25;5036060;28;20100;-76
2022/09/20 03:35:46;;;;;;;0.10;0.10;;;;;;;7.83;100.00;97043.94;5020986;28;20041;-76
2022/09/20 03:38:37;;;;;;;0.10;0.10;;;;;;;7.88;100.00;97045.97;5041287;28;20033;-76
2022/09/20 03:41:14;;;;;;;0.10;0.10;;;;;;;7.94;100.00;97040.59;5038558;28;20124;-76
2022/09/20 03:43:55;;;;;;;0.20;0.20;;;;;;;7.97;100.00;97032.13;5040063;28;20017;-76
2022/09/20 03:46:26;;;;;;;0.20;0.20;;;;;;;7.90;100.00;97031.38;5037766;28;20598;-76
2022/09/20 03:49:10;;;;;;;0.10;0.10;;;;;;;7.87;100.00;97029.16;5039308;28;20033;-76
2022/09/20 03:51:59;;;;;;;0.10;0.10;;;;;;;7.73;100.00;97043.59;5034792;28;20295;-76
2022/09/20 03:54:56;;;;;;;0.10;0.10;;;;;;;7.68;100.00;97032.78;5039715;28;20046;-76
2022/09/20 03:57:42;;;;;;;0.10;0.10;;;;;;;7.73;100.00;97043.59;5036415;28;20068;-75
2022/09/20 04:00:19;;;;;;;0.10;0.10;;;;;;;7.78;100.00;97046.41;5036985;28;20108;-76
2022/09/20 04:03:09;;;;;;;0.10;0.10;;;;;;;7.68;100.00;97046.09;5035906;28;20519;-75
2022/09/20 04:06:07;;;;;;;0.10;0.10;;;;;;;7.61;100.00;97048.78;5037608;28;20048;-75
2022/09/20 04:08:59;;;;;;;0.10;0.10;;;;;;;7.61;100.00;97048.78;5036855;28;20040;-75
2022/09/20 04:11:29;;;;;;;0.10;0.10;;;;;;;7.62;100.00;97049.59;5037981;28;20064;-75
2022/09/20 04:14:10;;;;;;;0.10;0.10;;;;;;;7.63;100.00;97043.28;5038875;28;20068;-75
2022/09/20 04:16:56;;;;;;;0.15;0.10;;;;;;;7.58;100.00;97045.75;5019349;28;20051;-75
2022/09/20 04:19:34;;;;;;;0.10;0.10;;;;;;;7.44;100.00;97045.84;5038659;28;20040;-75
2022/09/20 04:22:01;;;;;;;0.20;0.10;;;;;;;7.33;100.00;97064.34;5037437;28;20427;-75
2022/09/20 04:24:29;;;;;;;0.10;0.10;;;;;;;7.14;100.00;97055.41;5023903;28;21491;-75
2022/09/20 04:27:16;;;;;;;0.20;0.20;;;;;;;7.19;100.00;97059.09;5037373;28;20138;-75
2022/09/20 04:30:04;;;;;;;0.17;0.10;;;;;;;7.14;100.00;97064.22;5022600;28;20108;-75
2022/09/20 04:33:07;;;;;;;0.10;0.10;;;;;;;7.13;100.00;97064.44;5019252;28;20029;-75
2022/09/20 04:38:53;;;;;;;0.10;0.10;;;;;;;7.08;100.00;97065.09;5040159;28;20044;-75
2022/09/20 04:41:33;;;;;;;0.10;0.10;;;;;;;7.16;100.00;97061.31;5019826;28;20051;-76
2022/09/20 04:44:11;;;;;;;0.10;0.10;;;;;;;7.16;100.00;97066.66;5036611;28;20060;-75
2022/09/20 04:46:41;;;;;;;0.17;0.17;;;;;;;7.23;100.00;97064.78;5019814;28;20338;-76
2022/09/20 04:49:10;;;;;;;0.10;0.10;;;;;;;7.36;100.00;97067.38;5032208;28;20032;-76
2022/09/20 04:51:53;;;;;;;0.13;0.13;;;;;;;7.43;100.00;97064.69;5036094;28;20044;-76
2022/09/20 04:54:49;;;;;;;0.13;0.13;;;;;;;7.54;100.00;97064.81;5023348;28;20055;-75
2022/09/20 04:57:40;;;;;;;0.13;0.13;;;;;;;7.58;100.00;97062.56;5021313;28;20025;-75
2022/09/20 05:00:15;;;;;;;0.10;0.10;;;;;;;7.60;100.00;97057.00;5039647;28;20044;-75
2022/09/20 05:03:19;;;;;;;0.10;0.10;;;;;;;7.57;100.00;97071.56;4999468;28;20041;-75
2022/09/20 05:06:04;;;;;;;0.10;0.10;;;;;;;7.55;100.00;97063.00;5034823;28;20116;-75
2022/09/20 05:08:47;;;;;;;0.10;0.10;;;;;;;7.56;100.00;97069.94;5037201;28;20574;-75
2022/09/20 05:11:37;;;;;;;0.10;0.10;;;;;;;7.55;100.00;97073.66;5038995;28;20128;-76
2022/09/20 05:14:12;;;;;;;0.25;0.10;;;;;;;7.59;100.00;97079.34;5039180;28;20041;-76
2022/09/20 05:16:56;;;;;;;0.20;0.13;;;;;;;7.62;100.00;97081.56;5002571;28;20044;-76
2022/09/20 05:19:43;;;;;;;0.10;0.10;;;;;;;7.73;100.00;97087.03;5039738;28;20119;-76
2022/09/20 05:22:33;;;;;;;0.10;0.10;;;;;;;7.79;100.00;97085.38;5032659;28;20585;-77
2022/09/20 05:25:31;;;;;;;0.10;0.10;;;;;;;7.79;100.00;97090.69;5020655;28;20032;-76
2022/09/20 05:28:09;;;;;;;0.20;0.17;;;;;;;7.82;100.00;97084.94;4953530;28;20087;-76
2022/09/20 05:30:44;;;;;;;0.10;0.10;;;;;;;7.82;100.00;97090.25;5036408;28;20044;-76
2022/09/20 05:33:29;;;;;;;0.10;0.10;;;;;;;7.77;100.00;97093.56;5021557;28;20657;-76
2022/09/20 05:36:09;;;;;;;0.15;0.15;;;;;;;7.70;100.00;97086.63;5035652;28;20145;-76
2022/09/20 05:38:58;;;;;;;0.10;0.10;;;;;;;7.62;100.00;97102.88;5020781;28;20060;-76
2022/09/20 05:41:34;;;;;;;0.10;0.10;;;;;;;7.69;100.00;97101.00;5037789;28;20148;-76
2022/09/20 05:44:38;;;;;;;0.10;0.10;;;;;;;7.65;100.00;97107.78;5037731;28;20029;-75
2022/09/20 05:47:19;;;;;;;0.10;0.10;;;;;;;7.73;100.00;97107.53;5036896;28;20242;-76
2022/09/20 05:50:09;;;;;;;0.27;0.20;;;;;;;7.70;100.00;97103.44;5036731;28;20028;-76
2022/09/20 05:52:57;;;;;;;0.10;0.10;;;;;;;7.80;100.00;97109.13;5039775;28;20288;-76
2022/09/20 05:56:01;;;;;;;0.10;0.10;;;;;;;7.87;100.00;97106.44;5037483;28;20071;-76
2022/09/20 05:59:24;;;;;;;0.10;0.10;;;;;;;7.73;100.00;97107.53;5038617;28;20102;-76
2022/09/20 06:02:32;;;;;;;0.10;0.10;;;;;;;7.78;100.00;97108.53;4969645;28;20114;-76
2022/09/20 06:05:03;;;;;;;0.10;0.10;;;;;;;7.77;100.00;97109.53;4978851;28;20137;-76
2022/09/20 06:08:01;;;;;;;0.10;0.10;;;;;;;7.74;100.00;97111.84;5009357;28;20052;-76
2022/09/20 06:10:30;;;;;;;0.10;0.10;;;;;;;7.63;100.00;97112.53;5038118;28;20102;-76
2022/09/20 06:13:19;;;;;;;0.10;0.10;;;;;;;7.71;100.00;97117.59;5025025;28;20037;-76
2022/09/20 06:16:01;;;;;;;0.10;0.10;;;;;;;7.72;100.00;97116.56;5021483;28;20029;-76
2022/09/20 06:18:37;;;;;;;0.10;0.10;;;;;;;7.79;100.00;97117.34;5041671;28;20219;-76
2022/09/20 06:21:25;;;;;;;0.10;0.10;;;;;;;7.68;100.00;97120.69;5039665;28;20363;-75
2022/09/20 06:23:57;;;;;;;0.10;0.10;;;;;;;7.76;100.00;97120.41;5035895;28;20040;-75
2022/09/20 06:26:29;;;;;;;0.15;0.10;;;;;;;7.84;100.00;97128.16;5042431;28;20047;-76
2022/09/20 06:29:01;;;;;;;0.10;0.10;;;;;;;8.09;100.00;97129.03;5027488;28;20095;-75
2022/09/20 06:31:26;;;;;;;0.20;0.20;;;;;;;8.20;100.00;97132.03;5036718;28;20048;-76
2022/09/20 06:34:04;;;;;;;0.10;0.10;;;;;;;8.21;100.00;97133.66;5043891;28;20035;-76
2022/09/20 06:42:09;;;;;;;0.10;0.10;;;;;;;8.40;100.00;97131.88;5043354;28;20029;-75
2022/09/20 06:44:39;;;;;;;0.10;0.10;;;;;;;8.63;100.00;97130.22;5041805;28;20383;-76
2022/09/20 06:47:10;;;;;;;0.10;0.10;;;;;;;8.78;100.00;97129.06;5040753;28;20375;-75
2022/09/20 06:49:35;;;;;;;0.15;0.15;;;;;;;8.87;100.00;97122.41;5040930;28;20029;-75
2022/09/20 06:52:06;;;;;;;0.10;0.10;;;;;;;8.88;100.00;97132.88;5041741;28;20032;-76
2022/09/20 06:54:32;;;;;;;0.20;0.20;;;;;;;8.84;100.00;97138.88;5043307;28;20342;-76
2022/09/20 06:57:02;;;;;;;0.28;0.10;;;;;;;8.91;100.00;97135.09;5042369;28;20670;-76
2022/09/20 06:59:27;;;;;;;0.13;0.13;;;;;;;8.94;100.00;97139.97;5042032;28;20041;-76
2022/09/20 07:01:53;;;;;;;0.10;0.10;;;;;;;8.63;100.00;97140.09;5041058;28;20426;-76
2022/09/20 07:04:18;;;;;;;0.10;0.10;;;;;;;8.62;100.00;97136.59;5039856;28;20479;-76
2022/09/20 07:06:44;;;;;;;0.10;0.10;;;;;;;8.68;100.00;97148.25;5039392;28;20037;-76
2022/09/20 07:09:10;;;;;;;0.10;0.10;;;;;;;9.03;100.00;97145.06;5041118;28;20104;-76
2022/09/20 07:11:35;;;;;;;0.10;0.10;;;;;;;9.06;100.00;97142.75;5042345;28;20055;-76
2022/09/20 07:14:01;;;;;;;0.10;0.10;;;;;;;9.17;100.00;97142.00;5046953;28;20487;-76
2022/09/20 07:16:29;;;;;;;0.20;0.20;;;;;;;9.47;100.00;97141.25;5025940;28;20071;-77
2022/09/20 07:18:55;;;;;;;0.17;0.13;;;;;;;9.53;100.00;97145.69;5025409;28;20134;-76
2022/09/20 07:21:21;;;;;;;0.10;0.10;;;;;;;9.69;100.00;97145.06;5041300;28;20330;-76
2022/09/20 07:23:52;;;;;;;0.10;0.10;;;;;;;9.65;100.00;97146.56;5043274;28;20218;-77
2022/09/20 07:26:23;;;;;;;;;;;;;;;9.78;100.00;97145.56;5024302;28;20067;-76
2022/09/20 07:28:49;;;;;;;0.10;0.10;;;;;;;9.81;100.00;97139.78;5029837;28;20143;-76
2022/09/20 07:31:20;;;;;;;0.17;0.17;;;;;;;9.57;100.00;97138.03;5038839;28;20041;-76
2022/09/20 07:33:46;;;;;;;0.10;0.10;;;;;;;9.40;100.00;97152.00;5042094;28;20037;-76
2022/09/20 07:36:12;;;;;;;0.20;0.20;;;;;;;9.56;100.00;97139.88;5042853;28;20313;-77
2022/09/20 07:38:41;;;;;;;0.10;0.10;;;;;;;9.77;100.00;97141.25;5042795;28;20051;-77
2022/09/20 07:41:08;;;;;;;0.13;0.10;;;;;;;9.74;100.00;97142.53;5041486;28;20087;-76
2022/09/20 07:43:34;;;;;;;0.10;0.10;;;;;;;9.81;100.00;97147.00;5043583;28;20044;-76
2022/09/20 07:46:00;;;;;;;0.10;0.10;;;;;;;9.96;100.00;97145.53;5040033;28;20037;-76
2022/09/20 07:48:29;;;;;;;0.13;0.13;;;;;;;10.07;100.00;97151.13;5044651;28;20064;-76
2022/09/20 07:50:57;;;;;;;0.10;0.10;;;;;;;9.99;100.00;97150.41;5007637;28;20049;-76
2022/09/20 07:53:24;;;;;;;0.10;0.10;;;;;;;10.17;100.00;97154.88;5044748;28;20056;-76
2022/09/20 07:56:10;;;;;;;0.10;0.10;;;;;;;10.02;100.00;97152.63;5043484;28;20463;-76
2022/09/20 07:58:36;;;;;;;0.10;0.10;;;;;;;10.01;100.00;97155.53;5042542;28;20494;-76
2022/09/20 08:01:05;;;;;;;0.10;0.10;;;;;;;10.13;100.00;97158.25;5040028;28;20038;-76
2022/09/20 08:03:31;;;;;;;0.10;0.10;;;;;;;10.17;100.00;97162.09;5025277;28;20036;-76
2022/09/20 08:06:04;;;;;;;0.20;0.10;;;;;;;10.17;100.00;97159.41;5039905;28;20530;-76
2022/09/20 08:08:37;;;;;;;0.13;0.13;;;;;;;9.99;100.00;97166.47;5041329;28;20051;-76
2022/09/20 08:11:08;;;;;;;0.17;0.17;;;;;;;10.15;100.00;97170.34;5037830;28;20435;-76
2022/09/20 08:13:47;;;;;;;0.10;0.10;;;;;;;10.52;100.00;97164.88;5041897;28;20506;-77
2022/09/20 08:16:13;;;;;;;0.10;0.10;;;;;;;10.35;100.00;97169.25;5043525;28;20471;-77
2022/09/20 08:18:45;;;;;;;0.10;0.10;;;;;;;10.41;100.00;97168.34;5042851;28;20401;-78
2022/09/20 08:21:12;;;;;;;0.10;0.10;;;;;;;10.60;100.00;97173.38;5030523;28;20358;-77
2022/09/20 08:23:40;;;;;;;0.20;0.17;;;;;;;11.01;100.00;97168.16;5027478;28;20033;-78
2022/09/20 08:26:10;;;;;;;0.10;0.10;;;;;;;11.07;100.00;97160.00;5036733;28;20049;-78
2022/09/20 08:28:37;;;;;;;0.20;0.20;;;;;;;11.35;100.00;97161.94;5044281;28;20025;-77
2022/09/20 08:31:04;;;;;;;0.10;0.10;;;;;;;11.24;100.00;97161.97;5026718;28;20037;-78
2022/09/20 08:33:31;;;;;;;0.10;0.10;;;;;;;11.28;100.00;97152.38;5045720;28;20032;-78
2022/09/20 08:35:56;;;;;;;0.15;0.15;;;;;;;11.36;100.00;97168.94;5024257;28;20343;-78
2022/09/20 08:38:26;;;;;;;0.25;0.20;;;;;;;11.78;100.00;97162.53;5045861;28;20040;-78
2022/09/20 08:41:26;;;;;;;0.10;0.10;;;;;;;12.04;100.00;97166.53;5041134;28;20024;-78
2022/09/20 08:43:56;;;;;;;0.15;0.15;;;;;;;12.65;100.00;97159.53;5048253;28;20029;-78
2022/09/20 08:46:28;;;;;;;0.13;0.10;;;;;;;12.44;100.00;97164.53;5025821;28;20368;-78
2022/09/20 08:48:56;;;;;;;0.10;0.10;;;;;;;12.32;100.00;97163.00;5021692;28;20048;-78
2022/09/20 08:51:32;;;;;;;0.10;0.10;;;;;;;12.57;100.00;97160.75;5041979;28;20868;-78
2022/09/20 08:53:59;;;;;;;0.13;0.10;;;;;;;12.82;100.00;97163.00;5046033;28;20044;-78
2022/09/20 08:56:28;;;;;;;0.10;0.10;;;;;;;12.91;100.00;97153.47;5029580;28;20095;-78
2022/09/20 08:58:59;;;;;;;0.10;0.10;;;;;;;12.63;100.00;97159.78;5024655;28;20140;-78
2022/09/20 09:01:28;;;;;;;0.10;0.10;;;;;;;12.28;100.00;97160.78;5042639;28;20518;-78
2022/09/20 09:04:04;;;;;;;0.30;0.20;;;;;;;11.90;100.00;97164.13;5045409;28;20024;-78
2022/09/20 09:06:29;;;;;;;0.10;0.10;;;;;;;11.53;100.00;97162.84;5023189;28;20036;-78
2022/09/20 09:08:58;;;;;;;0.10;0.10;;;;;;;11.31;100.00;97171.50;5042556;28;20057;-78
2022/09/20 09:11:23;;;;;;;0.20;0.10;;;;;;;11.13;100.00;97172.47;5040497;28;20045;-78
2022/09/20 09:13:52;;;;;;;0.10;0.10;;;;;;;11.23;100.00;97171.88;5008584;28;20353;-77
2022/09/20 09:16:20;;;;;;;0.10;0.10;;;;;;;11.10;100.00;97172.91;5041372;28;20073;-76
2022/09/20 09:18:48;;;;;;;0.10;0.10;;;;;;;11.05;100.00;97183.53;5042333;28;20034;-77
2022/09/20 09:21:32;;;;;;;0.47;0.20;;;;;;;10.97;100.00;97180.38;5038196;28;20467;-77
2022/09/20 09:24:03;;;;;;;0.10;0.10;;;;;;;10.94;100.00;97173.63;5043309;28;20044;-77
2022/09/20 09:26:38;;;;;;;0.10;0.10;;;;;;;11.14;100.00;97175.97;5037447;28;20519;-77
2022/09/20 09:29:24;;;;;;;0.10;0.10;;;;;;;11.73;100.00;97171.28;5025329;28;20483;-77
2022/09/20 09:31:53;;;;;;;0.10;0.10;;;;;;;12.24;100.00;97173.06;5037993;28;20567;-77
2022/09/20 09:34:25;;;;;;;0.20;0.20;;;;;;;12.61;100.00;97167.25;5023937;28;20021;-77
2022/09/20 09:36:53;;;;;;;0.10;0.10;;;;;;;12.63;100.00;97167.00;5037959;28;20250;-77
2022/09/20 09:39:29;;;;;;;0.17;0.17;;;;;;;13.03;100.00;97166.81;5039617;28;20036;-77
2022/09/20 09:41:55;;;;;;;0.10;0.10;;;;;;;13.25;100.00;97170.41;5038811;28;20037;-77
2022/09/20 09:44:29;;;;;;;0.20;0.20;;;;;;;13.19;100.00;97170.53;5040945;28;20036;-77
2022/09/20 09:46:56;;;;;;;0.10;0.10;;;;;;;13.15;100.00;97166.69;5024154;28;20147;-77
2022/09/20 09:49:25;;;;;;;0.10;0.10;;;;;;;13.25;100.00;97156.97;5022391;28;20084;-77
2022/09/20 09:52:12;;;;;;;0.17;0.10;;;;;;;12.92;100.00;97168.56;5011569;28;20040;-77
2022/09/20 09:54:45;;;;;;;0.10;0.10;;;;;;;12.98;100.00;97162.16;5048654;28;20032;-77
2022/09/20 09:57:54;;;;;;;0.13;0.13;;;;;;;13.26;100.00;97153.22;5045803;28;20066;-77
2022/09/20 10:00:25;;;;;;;0.10;0.10;;;;;;;13.35;100.00;97167.03;5044536;28;20037;-77
2022/09/20 10:02:57;;;;;;;;;;;;;;;13.14;100.00;97167.78;5045256;28;20140;-77
2022/09/20 10:05:41;;;;;;;0.13;0.10;;;;;;;12.99;100.00;97157.63;5044891;28;19924;-77
2022/09/20 10:08:26;;;;;;;0.10;0.10;;;;;;;12.84;100.00;97166.28;5045352;28;20441;-77
2022/09/20 10:11:23;;;;;;;0.10;0.10;;;;;;;12.68;100.00;97162.53;5044774;28;20069;-77
2022/09/20 10:13:57;;;;;;;0.10;0.10;;;;;;;13.18;100.00;97160.84;5047323;28;20067;-77
2022/09/20 10:16:43;;;;;;;0.10;0.10;;;;;;;13.56;100.00;97157.34;5025338;28;20063;-77
2022/09/20 10:19:23;;;;;;;0.10;0.10;;;;;;;13.51;100.00;97163.47;5047734;28;20523;-77
2022/09/20 10:22:09;;;;;;;0.10;0.10;;;;;;;13.30;100.00;97169.63;5044895;28;20649;-77
2022/09/20 10:25:10;;;;;;;0.13;0.13;;;;;;;13.21;100.00;97165.75;5045364;28;20284;-77
2022/09/20 10:27:50;;;;;;;0.10;0.10;;;;;;;12.93;100.00;97156.75;5045619;28;20029;-77
2022/09/20 10:30:21;;;;;;;0.10;0.10;;;;;;;12.67;100.00;97170.81;5025019;28;20120;-77
2022/09/20 10:33:27;;;;;;;0.10;0.10;;;;;;;12.23;100.00;97171.44;5045022;28;20135;-76
2022/09/20 10:36:04;;;;;;;0.10;0.10;;;;;;;11.72;100.00;97178.50;4694792;28;9999855;-77
2022/09/20 10:38:41;;;;;;;0.10;0.10;;;;;;;11.39;100.00;97176.50;4696122;28;9999652;-77
2022/09/20 10:44:18;;;;;;;0.10;0.10;;;;;;;11.22;100.00;97189.00;5005686;28;20049;-76
2022/09/20 10:47:05;;;;;;;0.10;0.10;;;;;;;11.48;100.00;97178.81;5022109;28;20143;-76
2022/09/20 10:50:08;;;;;;;0.10;0.10;;;;;;;11.81;100.00;97170.13;5040295;28;20111;-76
2022/09/20 10:52:48;;;;;;;0.20;0.20;;;;;;;12.80;100.00;97178.56;5040018;28;20148;-76
2022/09/20 10:55:30;;;;;;;0.10;0.10;;;;;;;12.88;100.00;97178.16;5034466;28;20582;-77
2022/09/20 10:58:14;;;;;;;0.20;0.20;;;;;;;12.93;100.00;97177.44;5023730;28;20300;-77
2022/09/20 11:00:51;;;;;;;0.10;0.10;;;;;;;13.05;100.00;97168.19;5041146;28;20125;-76
2022/09/20 11:03:32;;;;;;;0.10;0.10;;;;;;;13.37;100.00;97172.97;5038777;28;20068;-76
2022/09/20 11:06:10;;;;;;;;;;;;;;;13.63;100.00;97174.13;5040377;28;20033;-77
2022/09/20 11:08:38;;;;;;;0.10;0.10;;;;;;;14.36;100.00;97169.25;5042145;28;19919;-77
2022/09/20 11:11:20;;;;;;;0.10;0.10;;;;;;;15.18;100.00;97168.84;5042529;28;20067;-77
2022/09/20 11:14:18;;;;;;;0.10;0.10;;;;;;;15.35;100.00;97168.66;5039946;28;20028;-77
2022/09/20 11:16:54;;;;;;;0.10;0.10;;;;;;;15.47;100.00;97173.84;5038389;28;20036;-77
2022/09/20 11:19:32;;;;;;;0.10;0.10;;;;;;;15.54;100.00;97174.41;5042710;28;20033;-77
2022/09/20 11:22:10;;;;;;;0.10;0.10;;;;;;;15.85;100.00;97164.59;5041981;28;20041;-77
2022/09/20 11:24:44;;;;;;;0.10;0.10;;;;;;;16.26;100.00;97164.69;5042513;28;20033;-76
2022/09/20 11:27:18;;;;;;;0.20;0.20;;;;;;;16.96;100.00;97155.84;5039688;28;20089;-76
2022/09/20 11:29:56;;;;;;;0.10;0.10;;;;;;;17.24;95.88;97149.03;5042157;28;20044;-77
2022/09/20 11:32:29;;;;;;;0.10;0.10;;;;;;;16.79;98.23;97149.91;5038612;28;20151;-77
2022/09/20 11:35:01;;;;;;;0.10;0.10;;;;;;;16.72;97.96;97154.75;5035222;28;20514;-76
2022/09/20 11:37:36;;;;;;;0.10;0.10;;;;;;;16.36;100.00;97152.03;5035612;28;20424;-77
2022/09/20 11:40:17;;;;;;;0.22;0.22;;;;;;;21.52;66.25;97146.44;5038673;28;20033;-77
2022/09/20 11:42:42;;;;;;;0.10;0.10;;;;;;;23.10;48.23;97145.63;5032398;28;20190;-77
2022/09/20 11:45:11;;;;;;;0.20;0.20;;;;;;;23.17;59.98;97149.53;5040990;28;20041;-77
2022/09/20 11:47:46;;;;;;;0.20;0.20;;;;;;;26.80;39.11;97136.47;5036791;28;20090;-77
2022/09/20 11:50:41;;;;;;;0.10;0.10;;;;;;;28.55;32.31;97145.78;5040904;28;20380;-78
2022/09/20 11:53:32;;;;;;;0.00;0.00;;;;;;;24.04;43.38;97160.81;5039365;28;20366;-78
2022/09/20 11:56:07;;;;;;;0.10;0.10;;;;;;;21.32;66.04;97161.22;5023867;28;20368;-77
2022/09/20 11:58:47;;;;;;;0.20;0.20;;;;;;;23.41;43.69;97154.63;5043023;28;20483;-77
2022/09/20 12:01:16;;;;;;;0.17;0.17;;;;;;;22.07;50.67;97139.00;5039075;28;20091;-77
2022/09/20 12:03:49;;;;;;;0.00;0.00;;;;;;;19.98;61.27;97149.97;5042115;28;20439;-77
2022/09/20 12:06:36;;;;;;;0.10;0.10;;;;;;;18.20;67.46;97160.56;5041900;28;20111;-77
2022/09/20 12:09:23;;;;;;;0.10;0.10;;;;;;;17.58;84.83;97163.78;5046284;28;21096;-77
2022/09/20 12:11:51;;;;;;;0.10;0.10;;;;;;;16.46;90.15;97174.72;5024232;28;20317;-77
2022/09/20 12:14:26;;;;;;;0.10;0.10;;;;;;;15.82;100.00;97179.44;5045093;28;20032;-77
2022/09/20 12:16:53;;;;;;;0.00;0.00;;;;;;;15.57;100.00;97173.91;5021902;28;20357;-77
2022/09/20 12:19:37;;;;;;;0.10;0.10;;;;;;;15.27;100.00;97177.25;5044000;28;20035;-77
2022/09/20 12:22:03;;;;;;;0.10;0.10;;;;;;;15.24;100.00;97178.56;5040267;28;20025;-77
2022/09/20 12:24:31;;;;;;;0.10;0.10;;;;;;;15.52;100.00;97176.56;5041653;28;20443;-77
2022/09/20 12:27:19;;;;;;;0.10;0.10;;;;;;;16.95;100.00;97175.81;5034856;28;20036;-77
2022/09/20 12:30:02;;;;;;;0.17;0.17;;;;;;;17.17;96.96;97172.03;5042619;28;20033;-77
2022/09/20 12:32:33;;;;;;;0.10;0.10;;;;;;;16.33;97.99;97174.16;5040268;28;20221;-77